KCSM/CSM METAR and TAF weather

Enter ICAO airport designator
Station Type Date Time Source
KCSM METAR 2018/04/26 14:53 UTC NOAA

KCSM 261453Z 18007KT 10SM CLR 13/07 A3002 RMK AO2 SLP162 T01280067 50001


Station Type Date Time Source
KCSM Decoded METAR 2018/04/26 14:53 UTC NOAA

CLINTON-SHERMAN AIRPORT, OK, United States (KCSM) 35-21E 99-12W 588M
Apr 26, 2018 - 10:53 AM EDT / 2018.04.26 1453 UTC
Wind: from the S (180 degrees) at 8 MPH (7 KT):0
Visibility: 10 mile(s):0
Sky conditions: clear
Temperature: 55.0 F (12.8 C)
Dew Point: 44.1 F (6.7 C)
Relative Humidity: 66%
Pressure (altimeter): 30.02 in. Hg (1016 hPa)
Pressure tendency: 0.00 inches (0.1 hPa) higher than three hours ago
ob: KCSM 261453Z 18007KT 10SM CLR 13/07 A3002 RMK AO2 SLP162 T01280067 50001
cycle: 15

Station Type Date Time Source
KCSM TAF 2018/04/26 12:24 UTC NOAA

TAF KCSM 261123Z 2612/2712 20007KT P6SM FEW100
FM270000 36012KT P6SM BKN080 PROB30 2700/2704 4SM -SHRA BR OVC050


Example: see airport list